Time,TemperatureF,DewpointF,PressureIn,WindDirection,WindDirectionDegrees,WindSpeedMPH,WindSpeedGustMPH,Humidity,HourlyPrecipIn,Conditions,Clouds,dailyrainin,SoftwareType,DateUTC
2013-09-14 00:07:00,58.6,49.0,30.02,North,358,0.0,0.0,70,0.00,,,0.00,weatherlink.com 1.10,2013-09-14 05:07:00,
2013-09-14 00:22:00,58.6,48.0,30.02,North,358,0.0,0.0,69,0.00,,,0.00,weatherlink.com 1.10,2013-09-14 05:22:00,
2013-09-14 00:37:00,58.5,49.0,30.01,North,358,0.0,0.0,70,0.00,,,0.00,weatherlink.com 1.10,2013-09-14 05:37:00,
2013-09-14 00:52:00,58.3,49.0,30.01,North,359,0.0,0.0,70,0.00,,,0.00,weatherlink.com 1.10,2013-09-14 05:52:00,
2013-09-14 01:07:00,58.2,48.0,30.01,North,358,0.0,0.0,70,0.00,,,0.00,weatherlink.com 1.10,2013-09-14 06:07:00,
2013-09-14 01:22:00,57.9,48.0,30.02,North,359,0.0,0.0,70,0.00,,,0.00,weatherlink.com 1.10,2013-09-14 06:22:00,
2013-09-14 01:38:00,57.3,48.0,30.02,North,358,0.0,0.0,71,0.00,,,0.00,weatherlink.com 1.10,2013-09-14 06:38:00,
2013-09-14 01:53:00,56.9,48.0,30.02,North,358,0.0,0.0,72,0.00,,,0.00,weatherlink.com 1.10,2013-09-14 06:53:00,
2013-09-14 02:08:00,56.5,48.0,30.02,North,359,0.0,0.0,72,0.00,,,0.00,weatherlink.com 1.10,2013-09-14 07:08:00,
2013-09-14 02:23:00,56.4,47.0,30.03,North,358,0.0,0.0,72,0.00,,,0.00,weatherlink.com 1.10,2013-09-14 07:23:00,
2013-09-14 02:38:00,56.3,47.0,30.03,North,359,0.0,0.0,71,0.00,,,0.00,weatherlink.com 1.10,2013-09-14 07:38:00,
2013-09-14 02:53:00,56.0,47.0,30.02,North,358,0.0,0.0,72,0.00,,,0.00,weatherlink.com 1.10,2013-09-14 07:53:00,
2013-09-14 03:08:00,55.9,47.0,30.03,North,359,0.0,0.0,72,0.00,,,0.00,weatherlink.com 1.10,2013-09-14 08:08:00,
2013-09-14 03:23:00,55.7,47.0,30.02,North,358,0.0,0.0,72,0.00,,,0.00,weatherlink.com 1.10,2013-09-14 08:23:00,
2013-09-14 03:38:00,55.8,47.0,30.02,North,359,0.0,0.0,72,0.00,,,0.00,weatherlink.com 1.10,2013-09-14 08:38:00,
2013-09-14 03:53:00,55.4,47.0,30.02,North,358,0.0,0.0,73,0.00,,,0.00,weatherlink.com 1.10,2013-09-14 08:53:00,
2013-09-14 04:08:00,55.0,47.0,30.02,North,359,0.0,0.0,74,0.00,,,0.00,weatherlink.com 1.10,2013-09-14 09:08:00,
2013-09-14 04:23:00,54.5,47.0,30.03,North,358,0.0,0.0,75,0.00,,,0.00,weatherlink.com 1.10,2013-09-14 09:23:00,
2013-09-14 04:38:00,54.4,47.0,30.03,North,358,0.0,0.0,75,0.00,,,0.00,weatherlink.com 1.10,2013-09-14 09:38:00,
2013-09-14 04:53:00,54.5,47.0,30.03,North,358,0.0,0.0,75,0.00,,,0.00,weatherlink.com 1.10,2013-09-14 09:53:00,
2013-09-14 05:08:00,54.2,47.0,30.03,North,358,0.0,0.0,76,0.00,,,0.00,weatherlink.com 1.10,2013-09-14 10:08:00,
2013-09-14 05:23:00,54.2,47.0,30.03,North,358,0.0,0.0,76,0.00,,,0.00,weatherlink.com 1.10,2013-09-14 10:23:00,
2013-09-14 05:38:00,53.7,47.0,30.03,North,359,0.0,0.0,77,0.00,,,0.00,weatherlink.com 1.10,2013-09-14 10:38:00,
2013-09-14 05:53:00,53.3,47.0,30.04,North,358,0.0,0.0,78,0.00,,,0.00,weatherlink.com 1.10,2013-09-14 10:53:00,
2013-09-14 06:08:00,53.0,47.0,30.04,North,358,0.0,0.0,79,0.00,,,0.00,weatherlink.com 1.10,2013-09-14 11:08:00,
2013-09-14 06:23:00,52.6,47.0,30.04,North,359,0.0,0.0,81,0.00,,,0.00,weatherlink.com 1.10,2013-09-14 11:23:00,
2013-09-14 06:38:00,52.4,47.0,30.04,North,358,0.0,0.0,81,0.00,,,0.00,weatherlink.com 1.10,2013-09-14 11:38:00,
2013-09-14 06:53:00,52.2,47.0,30.04,North,358,0.0,0.0,82,0.00,,,0.00,weatherlink.com 1.10,2013-09-14 11:53:00,
2013-09-14 07:08:00,52.2,47.0,30.04,North,358,0.0,0.0,82,0.00,,,0.00,weatherlink.com 1.10,2013-09-14 12:08:00,
2013-09-14 07:23:00,52.2,47.0,30.05,North,358,0.0,0.0,82,0.00,,,0.00,weatherlink.com 1.10,2013-09-14 12:23:00,
2013-09-14 07:38:00,52.8,47.0,30.05,North,359,0.0,0.0,81,0.00,,,0.00,weatherlink.com 1.10,2013-09-14 12:38:00,
2013-09-14 07:53:00,53.6,48.0,30.05,North,358,0.0,0.0,80,0.00,,,0.00,weatherlink.com 1.10,2013-09-14 12:53:00,
2013-09-14 08:08:00,54.9,48.0,30.06,North,359,0.0,0.0,77,0.00,,,0.00,weatherlink.com 1.10,2013-09-14 13:08:00,
2013-09-14 08:23:00,56.1,48.0,30.06,North,358,0.0,0.0,74,0.00,,,0.00,weatherlink.com 1.10,2013-09-14 13:23:00,
2013-09-14 08:38:00,57.1,48.0,30.06,ESE,110,0.0,0.0,71,0.00,,,0.00,weatherlink.com 1.10,2013-09-14 13:38:00,
2013-09-14 08:53:00,58.7,48.0,30.06,SE,127,0.0,2.0,67,0.00,,,0.00,weatherlink.com 1.10,2013-09-14 13:53:00,
2013-09-14 09:08:00,60.2,48.0,30.06,SE,141,0.0,0.0,65,0.00,,,0.00,weatherlink.com 1.10,2013-09-14 14:08:00,
2013-09-14 09:23:00,64.7,50.0,30.05,SSE,149,0.0,1.0,59,0.00,,,0.00,weatherlink.com 1.10,2013-09-14 14:23:00,
2013-09-14 09:38:00,69.8,50.0,30.06,ESE,115,0.0,4.0,50,0.00,,,0.00,weatherlink.com 1.10,2013-09-14 14:38:00,
2013-09-14 09:54:00,72.7,51.0,30.06,SE,144,0.0,1.0,47,0.00,,,0.00,weatherlink.com 1.10,2013-09-14 14:54:00,
2013-09-14 10:09:00,74.9,53.0,30.06,ESE,113,0.0,1.0,46,0.00,,,0.00,weatherlink.com 1.10,2013-09-14 15:09:00,
2013-09-14 10:24:00,76.0,52.0,30.05,ESE,115,0.0,3.0,44,0.00,,,0.00,weatherlink.com 1.10,2013-09-14 15:24:00,
2013-09-14 10:39:00,75.0,52.0,30.05,SSW,200,0.0,1.0,45,0.00,,,0.00,weatherlink.com 1.10,2013-09-14 15:39:00,
2013-09-14 10:54:00,74.2,50.0,30.04,East,93,0.0,6.0,43,0.00,,,0.00,weatherlink.com 1.10,2013-09-14 15:54:00,
2013-09-14 11:09:00,74.3,52.0,30.04,SW,215,0.0,3.0,46,0.00,,,0.00,weatherlink.com 1.10,2013-09-14 16:09:00,
2013-09-14 11:24:00,73.9,51.0,30.04,South,188,0.0,3.0,45,0.00,,,0.00,weatherlink.com 1.10,2013-09-14 16:24:00,
2013-09-14 11:39:00,73.8,51.0,30.04,SE,134,0.0,6.0,45,0.00,,,0.00,weatherlink.com 1.10,2013-09-14 16:39:00,
2013-09-14 11:54:00,73.9,55.0,30.03,SE,134,0.0,3.0,52,0.00,,,0.00,weatherlink.com 1.10,2013-09-14 16:54:00,
2013-09-14 12:09:00,74.0,52.0,30.03,SE,124,0.0,5.0,46,0.00,,,0.00,weatherlink.com 1.10,2013-09-14 17:09:00,
2013-09-14 12:24:00,75.2,53.0,30.03,SE,135,0.0,6.0,46,0.00,,,0.00,weatherlink.com 1.10,2013-09-14 17:24:00,
2013-09-14 12:39:00,76.3,52.0,30.02,SE,127,0.0,5.0,43,0.00,,,0.00,weatherlink.com 1.10,2013-09-14 17:39:00,
2013-09-14 12:54:00,78.0,53.0,30.02,ESE,116,0.0,4.0,42,0.00,,,0.00,weatherlink.com 1.10,2013-09-14 17:54:00,
2013-09-14 13:09:00,78.6,53.0,30.01,SW,214,0.0,2.0,41,0.00,,,0.00,weatherlink.com 1.10,2013-09-14 18:09:00,
2013-09-14 13:24:00,77.6,53.0,30.00,East,85,2.0,6.0,42,0.00,,,0.00,weatherlink.com 1.10,2013-09-14 18:24:00,
2013-09-14 13:39:00,78.8,54.0,29.99,ESE,115,0.0,1.0,43,0.00,,,0.00,weatherlink.com 1.10,2013-09-14 18:39:00,
2013-09-14 13:54:00,79.8,53.0,29.98,SSE,158,0.0,3.0,40,0.00,,,0.00,weatherlink.com 1.10,2013-09-14 18:54:00,
2013-09-14 14:09:00,79.9,52.0,29.98,ESE,113,0.0,7.0,38,0.00,,,0.00,weatherlink.com 1.10,2013-09-14 19:09:00,
2013-09-14 14:24:00,80.7,53.0,29.97,SE,126,0.0,3.0,39,0.00,,,0.00,weatherlink.com 1.10,2013-09-14 19:24:00,
2013-09-14 14:39:00,80.6,52.0,29.96,SE,129,0.0,5.0,37,0.00,,,0.00,weatherlink.com 1.10,2013-09-14 19:39:00,
2013-09-14 14:54:00,80.4,52.0,29.95,ESE,116,3.0,5.0,37,0.00,,,0.00,weatherlink.com 1.10,2013-09-14 19:54:00,
2013-09-14 15:09:00,80.3,52.0,29.95,SSE,148,4.0,5.0,37,0.00,,,0.00,weatherlink.com 1.10,2013-09-14 20:09:00,
2013-09-14 15:24:00,78.4,52.0,29.95,SE,137,0.0,6.0,40,0.00,,,0.00,weatherlink.com 1.10,2013-09-14 20:24:00,
2013-09-14 15:39:00,77.7,52.0,29.94,ESE,117,0.0,7.0,41,0.00,,,0.00,weatherlink.com 1.10,2013-09-14 20:39:00,
2013-09-14 15:55:00,77.7,52.0,29.94,SE,135,0.0,6.0,41,0.00,,,0.00,weatherlink.com 1.10,2013-09-14 20:55:00,
2013-09-14 16:09:00,77.9,52.0,29.93,SW,214,1.0,6.0,41,0.00,,,0.00,weatherlink.com 1.10,2013-09-14 21:09:00,
2013-09-14 16:24:00,77.8,53.0,29.93,NNW,330,0.0,2.0,43,0.00,,,0.00,weatherlink.com 1.10,2013-09-14 21:24:00,
2013-09-14 16:39:00,77.7,53.0,29.93,SSW,208,3.0,6.0,42,0.00,,,0.00,weatherlink.com 1.10,2013-09-14 21:39:00,
2013-09-14 16:54:00,77.4,52.0,29.92,SE,129,1.0,6.0,41,0.00,,,0.00,weatherlink.com 1.10,2013-09-14 21:54:00,
2013-09-14 17:09:00,77.1,51.0,29.92,SE,137,1.0,5.0,40,0.00,,,0.00,weatherlink.com 1.10,2013-09-14 22:09:00,
2013-09-14 17:24:00,76.4,52.0,29.91,SSW,203,1.0,4.0,42,0.00,,,0.00,weatherlink.com 1.10,2013-09-14 22:24:00,
2013-09-14 17:39:00,76.1,53.0,29.91,SE,142,0.0,1.0,44,0.00,,,0.00,weatherlink.com 1.10,2013-09-14 22:39:00,
2013-09-14 17:55:00,75.8,52.0,29.91,SSE,161,1.0,3.0,44,0.00,,,0.00,weatherlink.com 1.10,2013-09-14 22:55:00,
2013-09-14 18:10:00,75.5,52.0,29.91,South,191,2.0,5.0,44,0.00,,,0.00,weatherlink.com 1.10,2013-09-14 23:10:00,
2013-09-14 18:25:00,74.8,52.0,29.91,South,191,0.0,3.0,45,0.00,,,0.00,weatherlink.com 1.10,2013-09-14 23:25:00,
2013-09-14 18:40:00,74.2,51.0,29.91,SSW,192,0.0,3.0,45,0.00,,,0.00,weatherlink.com 1.10,2013-09-14 23:40:00,
2013-09-14 18:55:00,73.7,52.0,29.91,SE,146,0.0,2.0,47,0.00,,,0.00,weatherlink.com 1.10,2013-09-14 23:55:00,
2013-09-14 19:10:00,73.1,52.0,29.91,South,169,0.0,2.0,47,0.00,,,0.00,weatherlink.com 1.10,2013-09-15 00:10:00,
2013-09-14 19:25:00,72.7,52.0,29.90,SSW,203,0.0,1.0,48,0.00,,,0.00,weatherlink.com 1.10,2013-09-15 00:25:00,
2013-09-14 19:40:00,72.2,52.0,29.90,ESE,121,0.0,2.0,49,0.00,,,0.00,weatherlink.com 1.10,2013-09-15 00:40:00,
2013-09-14 19:55:00,71.8,51.0,29.91,SSW,198,0.0,2.0,49,0.00,,,0.00,weatherlink.com 1.10,2013-09-15 00:55:00,
2013-09-14 20:10:00,71.2,52.0,29.90,SE,135,0.0,0.0,50,0.00,,,0.00,weatherlink.com 1.10,2013-09-15 01:10:00,
2013-09-14 20:25:00,70.5,52.0,29.90,SE,135,0.0,0.0,52,0.00,,,0.00,weatherlink.com 1.10,2013-09-15 01:25:00,
2013-09-14 20:40:00,70.0,52.0,29.90,SSW,198,0.0,1.0,53,0.00,,,0.00,weatherlink.com 1.10,2013-09-15 01:40:00,
2013-09-14 20:55:00,69.5,52.0,29.90,SSW,198,0.0,0.0,54,0.00,,,0.00,weatherlink.com 1.10,2013-09-15 01:55:00,
2013-09-14 21:10:00,68.9,52.0,29.90,SSW,197,0.0,0.0,56,0.00,,,0.00,weatherlink.com 1.10,2013-09-15 02:10:00,
2013-09-14 21:25:00,68.6,52.0,29.90,SSW,197,0.0,0.0,56,0.00,,,0.00,weatherlink.com 1.10,2013-09-15 02:25:00,
2013-09-14 21:40:00,69.0,52.0,29.90,SSW,204,0.0,1.0,55,0.00,,,0.00,weatherlink.com 1.10,2013-09-15 02:40:00,
2013-09-14 21:55:00,69.1,52.0,29.89,SSW,193,0.0,1.0,55,0.00,,,0.00,weatherlink.com 1.10,2013-09-15 02:55:00,
2013-09-14 22:10:00,69.0,52.0,29.89,SSW,194,0.0,1.0,55,0.00,,,0.00,weatherlink.com 1.10,2013-09-15 03:10:00,
2013-09-14 22:25:00,69.1,52.0,29.90,SE,142,0.0,3.0,55,0.00,,,0.00,weatherlink.com 1.10,2013-09-15 03:25:00,
2013-09-14 22:40:00,69.2,52.0,29.90,SE,138,0.0,2.0,55,0.00,,,0.00,weatherlink.com 1.10,2013-09-15 03:40:00,
2013-09-14 22:55:00,69.1,52.0,29.90,ESE,108,0.0,1.0,55,0.00,,,0.00,weatherlink.com 1.10,2013-09-15 03:55:00,
2013-09-14 23:10:00,69.1,52.0,29.90,South,186,0.0,4.0,55,0.00,,,0.00,weatherlink.com 1.10,2013-09-15 04:10:00,
2013-09-14 23:25:00,69.2,52.0,29.90,SE,146,0.0,4.0,55,0.00,,,0.00,weatherlink.com 1.10,2013-09-15 04:25:00,
2013-09-14 23:40:00,69.2,52.0,29.90,SSW,207,0.0,4.0,55,0.00,,,0.00,weatherlink.com 1.10,2013-09-15 04:40:00,
2013-09-14 23:55:00,69.1,52.0,29.90,SSW,193,3.0,5.0,55,0.00,,,0.00,weatherlink.com 1.10,2013-09-15 04:55:00,